createdAt,value
2022-10-17T00:00:01.379Z,15.5
2022-10-17T00:02:32.180Z,15.6
2022-10-17T00:05:02.992Z,15.6
2022-10-17T00:07:34.254Z,15.6
2022-10-17T00:10:05.176Z,15.4
2022-10-17T00:12:36.369Z,15.5
2022-10-17T00:15:07.402Z,15.5
2022-10-17T00:17:38.778Z,15.4
2022-10-17T00:20:10.440Z,15.4
2022-10-17T00:22:41.321Z,15.4
2022-10-17T00:25:13.537Z,15.4
2022-10-17T00:27:44.560Z,15.4
2022-10-17T00:30:16.887Z,15.3
2022-10-17T00:32:47.638Z,15.4
2022-10-17T00:35:16.962Z,15.3
2022-10-17T00:37:48.143Z,15.2
2022-10-17T00:40:18.876Z,15.2
2022-10-17T00:42:50.106Z,15.2
2022-10-17T00:45:24.907Z,15.2
2022-10-17T00:47:55.784Z,15.2
2022-10-17T00:50:26.830Z,15.3
2022-10-17T00:52:58.202Z,15.2
2022-10-17T00:55:29.323Z,15.1
2022-10-17T00:58:02.714Z,15.1
2022-10-17T01:00:33.482Z,15.1
2022-10-17T01:03:06.190Z,15.1
2022-10-17T01:05:37.408Z,15
2022-10-17T01:08:08.310Z,15
2022-10-17T01:10:39.793Z,15
2022-10-17T01:13:10.421Z,14.9
2022-10-17T01:15:41.340Z,15
2022-10-17T01:18:14.616Z,15
2022-10-17T01:20:48.000Z,14.8
2022-10-17T01:23:22.394Z,14.9
2022-10-17T01:25:53.581Z,14.9
2022-10-17T01:28:24.832Z,14.9
2022-10-17T01:30:55.826Z,14.9
2022-10-17T01:33:27.570Z,14.9
2022-10-17T01:36:01.777Z,14.8
2022-10-17T01:38:31.247Z,14.9
2022-10-17T01:41:01.732Z,14.9
2022-10-17T01:43:33.306Z,14.9
2022-10-17T01:46:04.110Z,14.9
2022-10-17T01:48:34.539Z,15
2022-10-17T01:51:03.836Z,15
2022-10-17T01:53:35.361Z,15
2022-10-17T01:56:05.198Z,15
2022-10-17T01:58:34.584Z,14.9
2022-10-17T02:01:05.412Z,14.9
2022-10-17T02:03:36.475Z,14.9
2022-10-17T02:06:07.849Z,14.9
2022-10-17T02:08:37.153Z,14.9
2022-10-17T02:11:07.896Z,14.9
2022-10-17T02:13:39.205Z,14.9
2022-10-17T02:16:09.803Z,14.8
2022-10-17T02:18:41.925Z,14.9
2022-10-17T02:21:13.420Z,14.8
2022-10-17T02:23:44.799Z,14.8
2022-10-17T02:26:16.257Z,14.8
2022-10-17T02:28:47.612Z,14.7
2022-10-17T02:31:18.475Z,14.7
2022-10-17T02:33:48.801Z,14.5
2022-10-17T02:36:19.783Z,14.5
2022-10-17T02:38:51.186Z,14.4
2022-10-17T02:41:20.505Z,14.4
2022-10-17T02:43:51.835Z,14.4
2022-10-17T02:46:21.487Z,14.3
2022-10-17T02:48:54.371Z,14.4
2022-10-17T02:51:25.777Z,14.5
2022-10-17T02:53:57.272Z,14.5
2022-10-17T02:56:28.311Z,14.6
2022-10-17T02:58:59.510Z,14.7
2022-10-17T03:01:30.545Z,14.7
2022-10-17T03:04:01.753Z,14.8
2022-10-17T03:06:32.329Z,14.8
2022-10-17T03:09:02.926Z,14.9
2022-10-17T03:11:33.933Z,14.9
2022-10-17T03:14:05.311Z,14.9
2022-10-17T03:16:36.215Z,14.8
2022-10-17T03:19:08.100Z,14.8
2022-10-17T03:21:39.115Z,14.8
2022-10-17T03:24:09.667Z,14.8
2022-10-17T03:26:40.084Z,14.7
2022-10-17T03:29:13.651Z,14.7
2022-10-17T03:31:46.296Z,14.8
2022-10-17T03:34:18.099Z,14.8
2022-10-17T03:36:56.090Z,14.9
2022-10-17T03:39:29.429Z,14.9
2022-10-17T03:42:01.303Z,14.9
2022-10-17T03:44:36.787Z,14.9
2022-10-17T03:47:10.510Z,14.9
2022-10-17T03:49:41.658Z,14.8
2022-10-17T03:52:13.171Z,14.8
2022-10-17T03:54:44.727Z,14.8
2022-10-17T03:57:15.597Z,14.8
2022-10-17T03:59:46.889Z,14.8
2022-10-17T04:02:17.776Z,14.8
2022-10-17T04:04:49.073Z,14.8
2022-10-17T04:07:20.161Z,14.7
2022-10-17T04:09:51.138Z,14.8
2022-10-17T04:12:20.414Z,14.7
2022-10-17T04:14:49.739Z,14.8
2022-10-17T04:17:18.997Z,14.6
2022-10-17T04:19:49.874Z,14.6
2022-10-17T04:22:21.185Z,14.5
2022-10-17T04:24:52.184Z,14.4
2022-10-17T04:27:22.992Z,14.4
2022-10-17T04:29:53.748Z,14.4
2022-10-17T04:32:24.623Z,14.4
2022-10-17T04:34:55.296Z,14.4
2022-10-17T04:37:26.462Z,14.4
2022-10-17T04:39:58.363Z,14.5
2022-10-17T04:42:30.384Z,14.4
2022-10-17T04:45:01.911Z,14.3
2022-10-17T04:47:33.331Z,14.4
2022-10-17T04:50:05.538Z,14.3
2022-10-17T04:52:37.955Z,14.3
2022-10-17T04:55:08.770Z,14.2
2022-10-17T04:57:43.147Z,14.2
2022-10-17T05:00:15.104Z,14.2
2022-10-17T05:02:46.099Z,14.2
2022-10-17T05:05:17.395Z,14.2
2022-10-17T05:07:50.467Z,14.3
2022-10-17T05:10:23.581Z,14.3
2022-10-17T05:12:56.685Z,14.3
2022-10-17T05:15:27.929Z,14.3
2022-10-17T05:17:58.594Z,14.4
2022-10-17T05:20:28.827Z,14.5
2022-10-17T05:22:58.540Z,14.5
2022-10-17T05:25:29.363Z,14.6
2022-10-17T05:28:01.154Z,14.6
2022-10-17T05:30:33.796Z,14.7
2022-10-17T05:33:02.786Z,14.8
2022-10-17T05:35:34.301Z,14.9
2022-10-17T05:38:05.199Z,15
2022-10-17T05:40:36.912Z,15
2022-10-17T05:43:08.644Z,15.1
2022-10-17T05:45:39.340Z,15.1
2022-10-17T05:48:09.915Z,15.1
2022-10-17T05:50:40.859Z,15.2
2022-10-17T05:53:09.837Z,15.3
2022-10-17T05:55:40.960Z,15.3
2022-10-17T05:58:14.310Z,15.4
2022-10-17T06:00:42.387Z,15.4
2022-10-17T06:03:13.438Z,15.5
2022-10-17T06:05:45.746Z,15.6
2022-10-17T06:08:16.699Z,15.7
2022-10-17T06:10:47.531Z,15.6
2022-10-17T06:13:18.471Z,15.8
2022-10-17T06:15:49.264Z,15.8
2022-10-17T06:18:19.697Z,15.9
2022-10-17T06:20:50.576Z,16
2022-10-17T06:23:21.321Z,16
2022-10-17T06:25:53.220Z,16.1
2022-10-17T06:28:24.528Z,16.3
2022-10-17T06:30:55.317Z,16.4
2022-10-17T06:33:28.392Z,16.4
2022-10-17T06:35:59.564Z,16.5
2022-10-17T06:38:30.642Z,16.6
2022-10-17T06:41:01.373Z,16.6
2022-10-17T06:43:33.834Z,16.7
2022-10-17T06:46:04.503Z,16.8
2022-10-17T06:48:35.463Z,16.7
2022-10-17T06:51:06.572Z,16.9
2022-10-17T06:53:37.996Z,17.1
2022-10-17T06:56:08.915Z,17.1
2022-10-17T06:58:39.185Z,17.3
2022-10-17T07:01:11.205Z,17.2
2022-10-17T07:03:42.140Z,17.3
2022-10-17T07:06:13.507Z,17.4
2022-10-17T07:08:44.345Z,17.4
2022-10-17T07:11:15.106Z,17.3
2022-10-17T07:13:47.699Z,17.4
2022-10-17T07:16:19.462Z,17.4
2022-10-17T07:18:50.407Z,17.5
2022-10-17T07:21:26.209Z,17.5
2022-10-17T07:23:58.914Z,17.6
2022-10-17T07:26:29.537Z,17.7
2022-10-17T07:29:00.810Z,17.8
2022-10-17T07:31:31.508Z,17.8
2022-10-17T07:34:02.688Z,17.8
2022-10-17T07:36:33.603Z,18
2022-10-17T07:39:04.297Z,18.1
2022-10-17T07:41:35.402Z,18.2
2022-10-17T07:44:06.866Z,18.2
2022-10-17T07:46:37.454Z,18.3
2022-10-17T07:49:08.635Z,18.5
2022-10-17T07:51:39.595Z,18.5
2022-10-17T07:54:10.204Z,18.5
2022-10-17T07:56:39.301Z,18.6
2022-10-17T07:59:11.134Z,18.8
2022-10-17T08:01:42.174Z,18.9
2022-10-17T08:04:13.752Z,18.6
2022-10-17T08:06:44.359Z,18.9
2022-10-17T08:09:15.692Z,19
2022-10-17T08:11:47.085Z,18.9
2022-10-17T08:14:17.711Z,19
2022-10-17T08:16:47.152Z,19
2022-10-17T08:19:18.093Z,19.1
2022-10-17T08:21:54.248Z,19.2
2022-10-17T08:24:25.422Z,19.3
2022-10-17T08:26:57.327Z,19.4
2022-10-17T08:29:28.651Z,19.3
2022-10-17T08:32:01.028Z,19.5
2022-10-17T08:34:28.868Z,19.4
2022-10-17T08:36:59.727Z,19.5
2022-10-17T08:39:30.002Z,19.6
2022-10-17T08:42:00.420Z,19.8
2022-10-17T08:44:31.189Z,19.8
2022-10-17T08:47:02.070Z,19.8
2022-10-17T08:49:33.046Z,19.9
2022-10-17T08:52:04.258Z,20.1
2022-10-17T08:54:35.334Z,20.1
2022-10-17T08:57:06.729Z,20
2022-10-17T08:59:37.738Z,20.2
2022-10-17T09:02:08.779Z,20.2
2022-10-17T09:04:39.580Z,20.2
2022-10-17T09:07:10.243Z,20.2
2022-10-17T09:09:40.791Z,20.4
2022-10-17T09:12:11.433Z,20.5
2022-10-17T09:14:43.398Z,20.6
2022-10-17T09:17:14.210Z,20.7
2022-10-17T09:19:44.884Z,20.8
2022-10-17T09:22:15.614Z,20.8
2022-10-17T09:24:46.463Z,21
2022-10-17T09:27:17.929Z,21
2022-10-17T09:29:48.366Z,21.2
2022-10-17T09:32:19.402Z,21.3
2022-10-17T09:34:49.979Z,21.3
2022-10-17T09:37:20.432Z,21.1
2022-10-17T09:39:51.366Z,21.3
2022-10-17T09:42:21.894Z,21.4
2022-10-17T09:44:52.635Z,21.4
2022-10-17T09:47:24.315Z,21.5
2022-10-17T09:49:55.028Z,21.6
2022-10-17T09:52:25.613Z,21.8
2022-10-17T09:54:56.184Z,21.7
2022-10-17T09:57:26.621Z,21.7
2022-10-17T09:59:57.140Z,21.6
2022-10-17T10:02:28.009Z,21.8
2022-10-17T10:05:03.592Z,21.8
2022-10-17T10:07:30.037Z,22
2022-10-17T10:10:00.714Z,22
2022-10-17T10:12:32.006Z,22
2022-10-17T10:15:02.878Z,22
2022-10-17T10:17:33.206Z,22
2022-10-17T10:20:05.576Z,22
2022-10-17T10:22:36.959Z,22.1
2022-10-17T10:25:07.861Z,22.2
2022-10-17T10:27:38.869Z,22.2
2022-10-17T10:30:09.280Z,22.1
2022-10-17T10:32:40.129Z,22.3
2022-10-17T10:35:10.281Z,22.4
2022-10-17T10:37:40.552Z,22.3
2022-10-17T10:40:11.023Z,22.4
2022-10-17T10:42:42.237Z,22.4
2022-10-17T10:45:19.063Z,22.4
2022-10-17T10:47:43.444Z,22.3
2022-10-17T10:50:14.286Z,22.5
2022-10-17T10:52:44.971Z,22.4
2022-10-17T10:55:15.652Z,22.5
2022-10-17T10:57:46.549Z,22.7
2022-10-17T11:00:17.297Z,22.6
2022-10-17T11:02:48.263Z,22.6
2022-10-17T11:05:20.325Z,22.9
2022-10-17T11:07:51.391Z,22.9
2022-10-17T11:10:22.002Z,22.6
2022-10-17T11:12:52.931Z,22.6
2022-10-17T11:15:23.304Z,22.6
2022-10-17T11:17:55.044Z,22.6
2022-10-17T11:20:23.816Z,22.6
2022-10-17T11:22:55.867Z,22.6
2022-10-17T11:25:26.677Z,22.7
2022-10-17T11:28:00.926Z,22.8
2022-10-17T11:30:28.215Z,22.8
2022-10-17T11:32:59.269Z,22.8
2022-10-17T11:35:29.628Z,22.8
2022-10-17T11:38:00.185Z,22.8
2022-10-17T11:40:31.144Z,22.8
2022-10-17T11:43:01.487Z,22.8
2022-10-17T11:45:32.107Z,22.9
2022-10-17T11:48:02.911Z,23
2022-10-17T11:53:05.123Z,22.9
2022-10-17T11:55:36.283Z,23
2022-10-17T11:58:06.829Z,23
2022-10-17T12:00:39.199Z,23
2022-10-17T12:03:07.852Z,23.1
2022-10-17T12:05:38.660Z,23.2
2022-10-17T12:08:10.598Z,23.1
2022-10-17T12:10:41.171Z,23.3
2022-10-17T12:13:12.000Z,23.4
2022-10-17T12:15:46.507Z,23.3
2022-10-17T12:18:16.562Z,23.4
2022-10-17T12:20:47.195Z,23.4
2022-10-17T12:23:18.257Z,23.4
2022-10-17T12:25:48.897Z,23.3
2022-10-17T12:28:19.809Z,23.4
2022-10-17T12:30:49.864Z,23.3
2022-10-17T12:33:20.327Z,23.4
2022-10-17T12:35:53.624Z,23.4
2022-10-17T12:38:25.611Z,23.5
2022-10-17T12:40:56.357Z,23.6
2022-10-17T12:43:27.004Z,23.7
2022-10-17T12:45:57.510Z,23.7
2022-10-17T12:48:28.501Z,23.7
2022-10-17T12:51:12.235Z,23.9
2022-10-17T12:53:28.863Z,23.9
2022-10-17T12:55:59.898Z,24
2022-10-17T12:58:30.266Z,24
2022-10-17T13:03:32.369Z,23.9
2022-10-17T13:06:04.227Z,24
2022-10-17T13:08:35.047Z,23.9
2022-10-17T13:11:07.229Z,23.9
2022-10-17T13:13:37.047Z,23.9
2022-10-17T13:16:08.206Z,24.1
2022-10-17T13:18:39.017Z,24.1
2022-10-17T13:21:09.207Z,24.1
2022-10-17T13:23:39.960Z,23.9
2022-10-17T13:26:11.025Z,23.8
2022-10-17T13:28:40.083Z,23.7
2022-10-17T13:31:10.605Z,23.6
2022-10-17T13:33:41.248Z,23.4
2022-10-17T13:36:11.964Z,23.4
2022-10-17T13:38:43.302Z,23.3
2022-10-17T13:41:34.641Z,23.2
2022-10-17T13:43:46.359Z,23.2
2022-10-17T13:46:35.916Z,23.2
2022-10-17T13:48:48.401Z,23.1
2022-10-17T13:51:18.930Z,23.1
2022-10-17T13:53:49.813Z,23
2022-10-17T13:56:28.211Z,22.9
2022-10-17T13:58:52.069Z,22.9
2022-10-17T14:01:22.916Z,22.9
2022-10-17T14:04:07.462Z,22.9
2022-10-17T14:06:24.875Z,22.8
2022-10-17T14:08:55.484Z,22.7
2022-10-17T14:11:26.545Z,22.6
2022-10-17T14:13:57.482Z,22.6
2022-10-17T14:16:28.782Z,22.6
2022-10-17T14:18:59.591Z,22.6
2022-10-17T14:21:44.082Z,22.6
2022-10-17T14:24:01.534Z,22.5
2022-10-17T14:26:33.842Z,22.5
2022-10-17T14:29:05.386Z,22.5
2022-10-17T14:31:37.153Z,22.4
2022-10-17T14:34:08.431Z,22.4
2022-10-17T14:36:39.630Z,22.3
2022-10-17T14:39:14.254Z,22.3
2022-10-17T14:41:43.677Z,22.1
2022-10-17T14:44:15.315Z,22.2
2022-10-17T14:46:50.400Z,22.1
2022-10-17T14:49:24.164Z,22.1
2022-10-17T14:51:57.285Z,22.1
2022-10-17T14:54:24.538Z,22.2
2022-10-17T14:56:56.748Z,22.1
2022-10-17T14:59:52.594Z,22
2022-10-17T15:01:59.102Z,21.9
2022-10-17T15:04:29.930Z,21.9
2022-10-17T15:07:01.541Z,21.9
2022-10-17T15:09:32.463Z,21.9
2022-10-17T15:12:05.632Z,21.8
2022-10-17T15:14:37.026Z,21.8
2022-10-17T15:17:08.430Z,21.7
2022-10-17T15:19:39.762Z,21.5
2022-10-17T15:22:10.819Z,21.4
2022-10-17T15:24:42.071Z,21.3
2022-10-17T15:27:13.618Z,21.2
2022-10-17T15:29:44.563Z,21.2
2022-10-17T15:32:15.796Z,21.1
2022-10-17T15:34:48.066Z,21.1
2022-10-17T15:37:19.489Z,21.1
2022-10-17T15:39:49.966Z,20.9
2022-10-17T15:42:21.485Z,20.9
2022-10-17T15:44:53.046Z,20.8
2022-10-17T15:47:24.246Z,20.8
2022-10-17T15:49:55.050Z,20.7
2022-10-17T15:52:26.288Z,20.6
2022-10-17T15:54:57.458Z,20.6
2022-10-17T15:57:29.176Z,20.5
2022-10-17T16:00:00.430Z,20.4
2022-10-17T16:02:32.359Z,20.4
2022-10-17T16:05:02.884Z,20.4
2022-10-17T16:07:34.176Z,20.3
2022-10-17T16:10:05.466Z,20.2
2022-10-17T16:12:37.655Z,20.2
2022-10-17T16:15:09.229Z,20.1
2022-10-17T16:17:40.754Z,20.1
2022-10-17T16:20:12.247Z,20
2022-10-17T16:22:43.620Z,19.9
2022-10-17T16:25:15.238Z,19.9
2022-10-17T16:27:46.622Z,19.9
2022-10-17T16:30:18.575Z,19.8
2022-10-17T16:32:47.958Z,19.7
2022-10-17T16:35:19.517Z,19.6
2022-10-17T16:37:52.394Z,19.6
2022-10-17T16:40:24.059Z,19.6
2022-10-17T16:42:55.668Z,19.5
2022-10-17T16:45:29.358Z,19.6
2022-10-17T16:48:00.455Z,19.6
2022-10-17T16:50:34.526Z,19.5
2022-10-17T16:53:06.448Z,19.5
2022-10-17T16:55:38.253Z,19.5
2022-10-17T16:58:09.642Z,19.5
2022-10-17T17:00:41.146Z,19.4
2022-10-17T17:03:12.455Z,19.4
2022-10-17T17:05:43.901Z,19.3
2022-10-17T17:08:15.456Z,19.3
2022-10-17T17:10:47.087Z,19.4
2022-10-17T17:13:18.895Z,19.3
2022-10-17T17:15:50.509Z,19.2
2022-10-17T17:18:23.815Z,19.2
2022-10-17T17:20:55.374Z,19.3
2022-10-17T17:23:27.225Z,19.3
2022-10-17T17:25:59.675Z,19.2
2022-10-17T17:28:30.937Z,19.3
2022-10-17T17:31:01.814Z,19.2
2022-10-17T17:33:33.184Z,19
2022-10-17T17:36:04.323Z,19.1
2022-10-17T17:38:35.578Z,19
2022-10-17T17:41:11.367Z,18.9
2022-10-17T17:43:46.649Z,18.8
2022-10-17T17:46:20.116Z,18.6
2022-10-17T17:48:51.668Z,18.7
2022-10-17T17:51:25.600Z,18.6
2022-10-17T17:53:53.987Z,18.4
2022-10-17T17:56:24.953Z,18.3
2022-10-17T17:58:56.358Z,18.4
2022-10-17T18:01:27.505Z,18.3
2022-10-17T18:04:01.802Z,18.3
2022-10-17T18:06:34.557Z,18.3
2022-10-17T18:09:06.461Z,18.3
2022-10-17T18:11:38.345Z,18.3
2022-10-17T18:14:09.653Z,18.3
2022-10-17T18:16:41.406Z,18
2022-10-17T18:19:13.832Z,18.1
2022-10-17T18:21:46.256Z,18.1
2022-10-17T18:24:18.370Z,18.1
2022-10-17T18:26:49.624Z,18.1
2022-10-17T18:29:20.759Z,18.2
2022-10-17T18:31:52.253Z,18.1
2022-10-17T18:34:23.786Z,18
2022-10-17T18:36:55.646Z,18
2022-10-17T18:39:27.540Z,18
2022-10-17T18:41:58.998Z,18
2022-10-17T18:44:30.017Z,17.9
2022-10-17T18:47:02.949Z,17.8
2022-10-17T18:49:32.506Z,17.8
2022-10-17T18:52:04.603Z,17.8
2022-10-17T18:54:36.948Z,17.7
2022-10-17T18:57:08.183Z,17.7
2022-10-17T18:59:39.774Z,17.7
2022-10-17T19:02:15.824Z,17.5
2022-10-17T19:07:19.466Z,17.5
2022-10-17T19:09:50.162Z,17.5
2022-10-17T19:12:21.581Z,17.3
2022-10-17T19:14:52.741Z,17.4
2022-10-17T19:17:29.222Z,17.3
2022-10-17T19:19:59.937Z,17.1
2022-10-17T19:22:30.907Z,17.2
2022-10-17T19:25:01.941Z,17.2
2022-10-17T19:27:33.258Z,17.2
2022-10-17T19:30:04.593Z,17.2
2022-10-17T19:32:35.760Z,17
2022-10-17T19:35:09.130Z,17
2022-10-17T19:37:40.523Z,17
2022-10-17T19:40:11.690Z,16.9
2022-10-17T19:42:44.374Z,16.9
2022-10-17T19:45:21.932Z,16.8
2022-10-17T19:47:53.088Z,16.8
2022-10-17T19:50:23.839Z,16.7
2022-10-17T19:52:55.249Z,16.5
2022-10-17T19:55:26.255Z,16.5
2022-10-17T19:57:57.482Z,16.6
2022-10-17T20:00:29.723Z,16.6
2022-10-17T20:03:02.331Z,16.7
2022-10-17T20:05:34.518Z,16.6
2022-10-17T20:08:07.323Z,16.6
2022-10-17T20:10:39.414Z,16.7
2022-10-17T20:13:10.259Z,16.7
2022-10-17T20:15:41.690Z,16.7
2022-10-17T20:18:14.590Z,16.7
2022-10-17T20:20:46.180Z,16.6
2022-10-17T20:23:17.332Z,16.6
2022-10-17T20:25:56.820Z,16.6
2022-10-17T20:28:20.561Z,16.5
2022-10-17T20:30:52.908Z,16.5
2022-10-17T20:33:22.687Z,16.5
2022-10-17T20:35:54.953Z,16.4
2022-10-17T20:38:26.713Z,16.4
2022-10-17T20:40:59.801Z,16.4
2022-10-17T20:43:31.158Z,16.3
2022-10-17T20:46:09.937Z,16.3
2022-10-17T20:48:34.190Z,16.2
2022-10-17T20:51:06.802Z,16.2
2022-10-17T20:53:39.091Z,16.2
2022-10-17T20:56:12.633Z,16
2022-10-17T20:58:44.558Z,16.1
2022-10-17T21:01:16.538Z,16.1
2022-10-17T21:03:46.931Z,16
2022-10-17T21:06:17.794Z,16
2022-10-17T21:08:47.296Z,15.9
2022-10-17T21:11:18.496Z,16
2022-10-17T21:13:49.760Z,15.8
2022-10-17T21:16:21.183Z,15.8
2022-10-17T21:18:52.703Z,15.7
2022-10-17T21:21:24.378Z,15.6
2022-10-17T21:23:55.282Z,15.7
2022-10-17T21:26:27.117Z,15.7
2022-10-17T21:28:58.490Z,15.6
2022-10-17T21:31:36.189Z,15.6
2022-10-17T21:34:07.494Z,15.6
2022-10-17T21:36:40.788Z,15.6
2022-10-17T21:39:13.212Z,15.4
2022-10-17T21:41:48.007Z,15.4
2022-10-17T21:44:19.063Z,15.4
2022-10-17T21:46:52.521Z,15.4
2022-10-17T21:49:26.635Z,15.3
2022-10-17T21:51:56.777Z,15.3
2022-10-17T21:54:27.534Z,15.2
2022-10-17T21:56:58.924Z,15.1
2022-10-17T21:59:32.323Z,15.2
2022-10-17T22:02:03.533Z,15.1
2022-10-17T22:04:33.674Z,15
2022-10-17T22:07:06.324Z,15.1
2022-10-17T22:09:37.449Z,15
2022-10-17T22:12:08.571Z,15.1
2022-10-17T22:14:39.742Z,15
2022-10-17T22:17:10.338Z,15.1
2022-10-17T22:19:41.134Z,14.9
2022-10-17T22:22:10.986Z,15
2022-10-17T22:24:42.912Z,15
2022-10-17T22:27:16.142Z,15
2022-10-17T22:29:47.886Z,15
2022-10-17T22:32:19.947Z,15
2022-10-17T22:34:48.478Z,14.9
2022-10-17T22:37:19.789Z,15
2022-10-17T22:39:51.922Z,15
2022-10-17T22:42:31.586Z,15
2022-10-17T22:45:01.908Z,14.9
2022-10-17T22:47:34.170Z,14.8
2022-10-17T22:50:05.462Z,14.9
2022-10-17T22:52:45.590Z,14.9
2022-10-17T22:55:16.805Z,14.9
2022-10-17T22:57:48.206Z,14.9
2022-10-17T23:00:19.254Z,14.9
2022-10-17T23:02:49.979Z,14.9
2022-10-17T23:05:20.610Z,15
2022-10-17T23:07:53.499Z,14.9
2022-10-17T23:10:26.068Z,14.9
2022-10-17T23:12:57.200Z,14.8
2022-10-17T23:15:28.453Z,14.8
2022-10-17T23:17:59.670Z,14.9
2022-10-17T23:20:30.899Z,14.8
2022-10-17T23:23:03.145Z,14.9
2022-10-17T23:25:34.318Z,14.8
2022-10-17T23:28:06.138Z,14.8
2022-10-17T23:30:37.644Z,14.8
2022-10-17T23:33:08.474Z,14.8
2022-10-17T23:35:37.589Z,14.7
2022-10-17T23:38:08.693Z,14.8
2022-10-17T23:40:39.811Z,14.8
2022-10-17T23:43:08.850Z,14.6
2022-10-17T23:45:38.188Z,14.4
2022-10-17T23:48:09.727Z,14.5
2022-10-17T23:50:40.562Z,14.5
2022-10-17T23:53:11.210Z,14.6
2022-10-17T23:58:15.573Z,14.5
